createdAt,value
2023-03-06T00:00:19.770Z,53.47
2023-03-06T00:02:46.944Z,55.80
2023-03-06T00:05:15.243Z,57.77
2023-03-06T00:07:42.807Z,62.77
2023-03-06T00:10:18.096Z,52.17
2023-03-06T00:12:45.229Z,51.27
2023-03-06T00:15:13.282Z,54.83
2023-03-06T00:17:41.334Z,54.63
2023-03-06T00:20:10.646Z,56.23
2023-03-06T00:22:37.988Z,61.20
2023-03-06T00:25:06.181Z,56.43
2023-03-06T00:27:33.614Z,59.17
2023-03-06T00:30:01.318Z,63.40
2023-03-06T00:32:28.834Z,79.93
2023-03-06T00:34:56.829Z,77.90
2023-03-06T00:37:25.349Z,77.03
2023-03-06T00:39:52.553Z,78.37
2023-03-06T00:42:20.130Z,72.83
2023-03-06T00:44:47.469Z,70.93
2023-03-06T00:47:17.437Z,72.13
2023-03-06T00:49:45.542Z,79.10
2023-03-06T00:52:13.793Z,78.90
2023-03-06T00:54:41.409Z,70.30
2023-03-06T00:57:08.763Z,76.50
2023-03-06T00:59:36.029Z,89.87
2023-03-06T01:02:03.550Z,86.83
2023-03-06T01:04:32.007Z,95.50
2023-03-06T01:06:59.283Z,100.80
2023-03-06T01:09:26.353Z,93.97
2023-03-06T01:11:54.311Z,92.43
2023-03-06T01:14:21.689Z,92.63
2023-03-06T01:16:48.890Z,92.57
2023-03-06T01:19:18.021Z,75.67
2023-03-06T01:21:46.065Z,86.20
2023-03-06T01:24:13.072Z,103.87
2023-03-06T01:26:40.093Z,98.87
2023-03-06T01:29:07.112Z,97.83
2023-03-06T01:31:34.576Z,99.93
2023-03-06T01:34:01.807Z,90.63
2023-03-06T01:36:28.810Z,84.20
2023-03-06T01:38:55.796Z,83.87
2023-03-06T01:41:23.005Z,81.97
2023-03-06T01:43:50.206Z,85.77
2023-03-06T01:46:29.388Z,76.80
2023-03-06T01:48:58.161Z,76.90
2023-03-06T01:51:30.380Z,76.93
2023-03-06T01:54:00.932Z,74.83
2023-03-06T01:56:28.938Z,64.30
2023-03-06T01:58:57.308Z,60.23
2023-03-06T02:01:24.524Z,61.07
2023-03-06T02:03:53.139Z,56.47
2023-03-06T02:06:22.040Z,53.97
2023-03-06T02:08:51.862Z,62.57
2023-03-06T02:11:22.126Z,55.00
2023-03-06T02:13:51.809Z,54.97
2023-03-06T02:16:23.994Z,55.97
2023-03-06T02:18:51.955Z,49.17
2023-03-06T02:21:25.691Z,56.00
2023-03-06T02:24:13.659Z,53.77
2023-03-06T02:26:43.551Z,52.80
2023-03-06T02:29:11.213Z,41.77
2023-03-06T02:31:38.428Z,45.47
2023-03-06T02:34:14.850Z,49.67
2023-03-06T02:37:09.734Z,40.53
2023-03-06T02:39:42.409Z,53.23
2023-03-06T02:42:09.760Z,55.27
2023-03-06T02:44:37.019Z,49.03
2023-03-06T02:47:05.124Z,50.43
2023-03-06T02:49:32.126Z,56.47
2023-03-06T02:51:59.180Z,50.57
2023-03-06T02:54:26.318Z,52.90
2023-03-06T02:56:53.345Z,55.20
2023-03-06T02:59:20.306Z,59.07
2023-03-06T03:01:48.010Z,55.80
2023-03-06T03:04:15.148Z,48.67
2023-03-06T03:06:42.730Z,57.93
2023-03-06T03:09:10.613Z,49.50
2023-03-06T03:11:37.903Z,53.70
2023-03-06T03:14:04.958Z,58.57
2023-03-06T03:16:32.114Z,54.50
2023-03-06T03:18:59.330Z,58.50
2023-03-06T03:21:27.034Z,60.43
2023-03-06T03:23:55.453Z,56.73
2023-03-06T03:26:23.175Z,55.97
2023-03-06T03:31:37.981Z,41.30
2023-03-06T03:34:05.107Z,44.43
2023-03-06T03:36:35.671Z,58.53
2023-03-06T03:39:04.350Z,48.33
2023-03-06T03:41:32.376Z,51.17
2023-03-06T03:43:59.630Z,54.80
2023-03-06T03:46:26.894Z,54.77
2023-03-06T03:48:56.010Z,49.23
2023-03-06T03:51:23.344Z,52.30
2023-03-06T03:53:53.877Z,49.77
2023-03-06T03:56:27.628Z,55.70
2023-03-06T03:59:09.853Z,52.37
2023-03-06T04:01:44.865Z,56.93
2023-03-06T04:04:13.063Z,55.80
2023-03-06T04:06:41.660Z,51.13
2023-03-06T04:09:09.050Z,53.00
2023-03-06T04:11:37.095Z,58.13
2023-03-06T04:14:04.257Z,53.03
2023-03-06T04:16:31.818Z,55.43
2023-03-06T04:18:58.843Z,52.60
2023-03-06T04:21:26.079Z,55.63
2023-03-06T04:23:53.100Z,54.03
2023-03-06T04:26:20.631Z,51.50
2023-03-06T04:28:48.059Z,46.87
2023-03-06T04:31:15.778Z,49.73
2023-03-06T04:33:43.373Z,52.90
2023-03-06T04:36:25.186Z,55.43
2023-03-06T04:38:53.313Z,57.83
2023-03-06T04:41:20.514Z,57.00
2023-03-06T04:43:47.657Z,56.63
2023-03-06T04:46:14.801Z,60.03
2023-03-06T04:48:41.897Z,65.63
2023-03-06T04:51:08.997Z,57.77
2023-03-06T04:53:36.135Z,62.10
2023-03-06T04:56:03.138Z,63.50
2023-03-06T04:58:30.206Z,67.30
2023-03-06T05:00:57.286Z,56.23
2023-03-06T05:03:24.242Z,59.77
2023-03-06T05:05:51.258Z,55.60
2023-03-06T05:08:18.484Z,56.13
2023-03-06T05:10:45.832Z,54.77
2023-03-06T05:13:13.331Z,49.90
2023-03-06T05:15:41.135Z,52.80
2023-03-06T05:18:08.299Z,54.03
2023-03-06T05:20:35.285Z,53.07
2023-03-06T05:23:02.282Z,54.37
2023-03-06T05:25:29.294Z,61.50
2023-03-06T05:27:56.344Z,52.37
2023-03-06T05:30:23.533Z,62.27
2023-03-06T05:32:51.038Z,60.80
2023-03-06T05:35:21.247Z,67.27
2023-03-06T05:37:48.868Z,67.23
2023-03-06T05:40:16.887Z,66.10
2023-03-06T05:42:44.112Z,69.20
2023-03-06T05:45:11.966Z,65.77
2023-03-06T05:47:39.112Z,64.40
2023-03-06T05:50:08.419Z,58.00
2023-03-06T05:52:35.419Z,63.07
2023-03-06T05:55:02.480Z,61.47
2023-03-06T05:57:29.454Z,62.73
2023-03-06T05:59:56.533Z,61.27
2023-03-06T06:02:23.659Z,53.33
2023-03-06T06:04:50.740Z,55.23
2023-03-06T06:07:17.894Z,54.77
2023-03-06T06:09:48.202Z,59.40
2023-03-06T06:12:15.230Z,50.00
2023-03-06T06:14:42.259Z,53.10
2023-03-06T06:17:09.555Z,45.60
2023-03-06T06:19:36.582Z,49.70
2023-03-06T06:22:04.064Z,49.17
2023-03-06T06:24:32.069Z,50.53
2023-03-06T06:27:03.286Z,52.47
2023-03-06T06:29:31.307Z,53.03
2023-03-06T06:31:58.918Z,50.10
2023-03-06T06:34:26.350Z,53.87
2023-03-06T06:36:54.700Z,59.97
2023-03-06T06:39:23.203Z,53.70
2023-03-06T06:42:02.608Z,56.87
2023-03-06T06:44:37.460Z,45.80
2023-03-06T06:47:24.234Z,45.53
2023-03-06T06:49:53.649Z,49.38
2023-03-06T06:52:21.011Z,49.50
2023-03-06T06:54:48.185Z,56.23
2023-03-06T06:57:16.071Z,54.50
2023-03-06T06:59:43.493Z,52.67
2023-03-06T07:02:16.024Z,55.23
2023-03-06T07:05:00.764Z,44.63
2023-03-06T07:07:31.211Z,47.93
2023-03-06T07:10:00.070Z,52.07
2023-03-06T07:12:27.453Z,53.33
2023-03-06T07:14:54.415Z,52.27
2023-03-06T07:17:21.953Z,46.53
2023-03-06T07:19:49.014Z,51.50
2023-03-06T07:22:16.514Z,54.53
2023-03-06T07:24:43.753Z,50.07
2023-03-06T07:27:14.857Z,48.83
2023-03-06T07:29:45.475Z,53.07
2023-03-06T07:32:12.734Z,43.57
2023-03-06T07:34:39.939Z,51.17
2023-03-06T07:37:08.660Z,46.43
2023-03-06T07:39:35.684Z,44.80
2023-03-06T07:42:03.008Z,44.10
2023-03-06T07:44:30.206Z,54.63
2023-03-06T07:46:57.466Z,52.70
2023-03-06T07:49:24.397Z,55.17
2023-03-06T07:51:51.809Z,47.35
2023-03-06T07:54:18.797Z,56.10
2023-03-06T07:56:46.064Z,47.17
2023-03-06T07:59:13.368Z,50.20
2023-03-06T08:01:40.603Z,52.10
2023-03-06T08:04:07.642Z,54.58
2023-03-06T08:06:35.311Z,54.03
2023-03-06T08:09:02.468Z,55.00
2023-03-06T08:11:31.107Z,57.10
2023-03-06T08:13:59.284Z,57.53
2023-03-06T08:16:31.922Z,51.80
2023-03-06T08:18:59.183Z,47.90
2023-03-06T08:21:28.038Z,61.03
2023-03-06T08:23:55.392Z,49.53
2023-03-06T08:26:27.965Z,50.25
2023-03-06T08:28:56.940Z,47.85
2023-03-06T08:31:34.619Z,50.15
2023-03-06T08:34:04.889Z,47.67
2023-03-06T08:36:32.089Z,53.40
2023-03-06T08:38:59.830Z,52.83
2023-03-06T08:41:27.770Z,64.50
2023-03-06T08:43:54.974Z,50.92
2023-03-06T08:46:23.750Z,60.28
2023-03-06T08:48:50.815Z,51.92
2023-03-06T08:51:19.012Z,57.15
2023-03-06T08:53:46.776Z,51.15
2023-03-06T08:56:28.285Z,56.97
2023-03-06T08:58:58.062Z,51.13
2023-03-06T09:01:31.128Z,46.88
2023-03-06T09:04:01.625Z,44.55
2023-03-06T09:06:32.811Z,53.30
2023-03-06T09:09:00.458Z,52.42
2023-03-06T09:11:28.681Z,50.53
2023-03-06T09:13:56.702Z,57.15
2023-03-06T09:16:24.605Z,50.28
2023-03-06T09:18:54.642Z,43.95
2023-03-06T09:21:23.207Z,49.78
2023-03-06T09:23:51.295Z,48.28
2023-03-06T09:26:19.138Z,48.83
2023-03-06T09:28:46.973Z,48.85
2023-03-06T09:31:20.144Z,50.50
2023-03-06T09:33:48.438Z,51.00
2023-03-06T09:36:19.101Z,43.85
2023-03-06T09:38:48.070Z,44.65
2023-03-06T09:41:27.075Z,50.63
2023-03-06T09:44:04.907Z,38.83
2023-03-06T09:46:42.545Z,40.95
2023-03-06T09:49:23.317Z,41.95
2023-03-06T09:51:59.454Z,42.17
2023-03-06T09:54:52.462Z,41.05
2023-03-06T09:57:29.264Z,43.13
2023-03-06T09:59:59.953Z,43.00
2023-03-06T10:02:37.903Z,48.30
2023-03-06T10:05:12.608Z,38.92
2023-03-06T10:08:26.283Z,43.88
2023-03-06T10:11:02.606Z,42.33
2023-03-06T10:13:38.726Z,50.63
2023-03-06T10:16:41.917Z,43.92
2023-03-06T10:19:18.206Z,45.40
2023-03-06T10:22:01.311Z,54.57
2023-03-06T10:24:40.469Z,44.92
2023-03-06T10:27:19.046Z,39.60
2023-03-06T10:30:01.519Z,47.20
2023-03-06T10:32:49.463Z,41.05
2023-03-06T10:35:22.510Z,44.42
2023-03-06T10:37:49.849Z,43.97
2023-03-06T10:40:21.214Z,49.50
2023-03-06T10:42:50.674Z,43.97
2023-03-06T10:45:20.977Z,43.05
2023-03-06T10:47:48.153Z,53.03
2023-03-06T10:50:28.047Z,45.83
2023-03-06T10:53:16.708Z,48.53
2023-03-06T10:55:52.842Z,46.90
2023-03-06T10:58:30.169Z,48.17
2023-03-06T11:01:07.158Z,44.38
2023-03-06T11:03:36.837Z,36.80
2023-03-06T11:06:12.999Z,43.85
2023-03-06T11:08:42.958Z,49.45
2023-03-06T11:11:36.908Z,43.72
2023-03-06T11:14:16.545Z,44.83
2023-03-06T11:16:54.685Z,50.50
2023-03-06T11:19:29.020Z,47.97
2023-03-06T11:22:06.034Z,51.13
2023-03-06T11:24:43.273Z,47.60
2023-03-06T11:27:38.425Z,48.30
2023-03-06T11:30:18.429Z,46.42
2023-03-06T11:32:54.222Z,45.85
2023-03-06T11:35:26.864Z,40.50
2023-03-06T11:37:58.688Z,43.28
2023-03-06T11:40:32.270Z,39.38
2023-03-06T11:43:41.260Z,44.55
2023-03-06T11:46:22.599Z,37.70
2023-03-06T11:49:13.471Z,41.17
2023-03-06T11:51:51.968Z,31.85
2023-03-06T11:54:19.071Z,38.17
2023-03-06T11:56:48.641Z,36.95
2023-03-06T11:59:23.511Z,33.20
2023-03-06T12:02:32.935Z,34.28
2023-03-06T12:05:09.130Z,33.47
2023-03-06T12:07:48.037Z,39.63
2023-03-06T12:10:35.941Z,35.95
2023-03-06T12:13:28.022Z,38.40
2023-03-06T12:16:01.369Z,35.97
2023-03-06T12:19:02.571Z,38.10
2023-03-06T12:22:11.032Z,37.33
2023-03-06T12:24:53.534Z,47.05
2023-03-06T12:27:27.501Z,39.97
2023-03-06T12:30:15.757Z,44.47
2023-03-06T12:33:07.748Z,40.40
2023-03-06T12:36:11.675Z,40.67
2023-03-06T12:38:52.748Z,39.28
2023-03-06T12:41:41.430Z,38.92
2023-03-06T12:44:39.767Z,40.95
2023-03-06T12:47:14.003Z,34.35
2023-03-06T12:49:46.412Z,36.85
2023-03-06T12:52:30.170Z,39.42
2023-03-06T12:55:06.470Z,35.90
2023-03-06T12:57:33.933Z,33.13
2023-03-06T13:00:01.026Z,33.38
2023-03-06T13:02:31.672Z,32.33
2023-03-06T13:05:24.250Z,29.98
2023-03-06T13:08:13.770Z,33.88
2023-03-06T13:10:43.809Z,30.90
2023-03-06T13:13:43.337Z,38.78
2023-03-06T13:16:14.221Z,35.20
2023-03-06T13:18:41.233Z,36.42
2023-03-06T13:21:42.622Z,29.25
2023-03-06T13:24:37.399Z,28.83
2023-03-06T13:27:09.646Z,28.73
2023-03-06T13:29:36.603Z,37.08
2023-03-06T13:32:03.637Z,29.85
2023-03-06T13:34:40.139Z,39.88
2023-03-06T13:37:30.218Z,39.25
2023-03-06T13:39:58.572Z,35.55
2023-03-06T13:42:31.024Z,31.33
2023-03-06T13:45:06.785Z,27.65
2023-03-06T13:48:25.029Z,25.83
2023-03-06T13:50:48.794Z,24.85
2023-03-06T13:53:49.119Z,20.20
2023-03-06T13:56:47.335Z,24.90
2023-03-06T13:59:56.969Z,28.42
2023-03-06T14:03:09.305Z,41.97
2023-03-06T14:05:47.224Z,42.83
2023-03-06T14:08:17.667Z,42.78
2023-03-06T14:10:49.621Z,38.30
2023-03-06T14:13:32.318Z,34.92
2023-03-06T14:16:17.572Z,43.22
2023-03-06T14:18:51.066Z,34.78
2023-03-06T14:21:31.208Z,44.53
2023-03-06T14:24:03.768Z,33.38
2023-03-06T14:26:41.836Z,32.20
2023-03-06T14:29:23.309Z,27.58
2023-03-06T14:31:53.612Z,22.80
2023-03-06T14:34:24.229Z,27.45
2023-03-06T14:36:56.461Z,19.13
2023-03-06T14:39:32.411Z,22.20
2023-03-06T14:42:24.930Z,21.83
2023-03-06T14:45:18.884Z,24.10
2023-03-06T14:47:53.441Z,25.83
2023-03-06T14:50:28.064Z,20.33
2023-03-06T14:53:03.257Z,30.42
2023-03-06T14:55:35.203Z,35.60
2023-03-06T14:58:12.303Z,38.20
2023-03-06T15:00:46.641Z,35.85
2023-03-06T15:03:42.980Z,35.80
2023-03-06T15:06:33.447Z,36.85
2023-03-06T15:09:00.532Z,35.42
2023-03-06T15:11:41.634Z,33.50
2023-03-06T15:14:18.912Z,49.53
2023-03-06T15:16:46.023Z,64.78
2023-03-06T15:19:39.887Z,62.30
2023-03-06T15:22:20.906Z,49.63
2023-03-06T15:24:47.990Z,46.53
2023-03-06T15:27:20.229Z,47.40
2023-03-06T15:29:47.249Z,45.85
2023-03-06T15:32:36.006Z,56.25
2023-03-06T15:35:24.540Z,50.00
2023-03-06T15:37:52.261Z,54.83
2023-03-06T15:40:24.697Z,47.35
2023-03-06T15:42:52.248Z,53.28
2023-03-06T15:45:22.078Z,44.53
2023-03-06T15:47:50.816Z,37.58
2023-03-06T15:50:23.307Z,50.67
2023-03-06T15:52:51.013Z,55.58
2023-03-06T15:55:21.019Z,41.03
2023-03-06T15:57:52.622Z,45.20
2023-03-06T16:00:32.685Z,46.90
2023-03-06T16:03:00.286Z,46.25
2023-03-06T16:05:28.951Z,37.83
2023-03-06T16:07:56.779Z,44.38
2023-03-06T16:10:26.855Z,41.35
2023-03-06T16:13:02.633Z,33.53
2023-03-06T16:15:33.346Z,37.28
2023-03-06T16:18:00.444Z,33.67
2023-03-06T16:20:29.399Z,47.47
2023-03-06T16:22:56.935Z,41.28
2023-03-06T16:25:26.858Z,62.88
2023-03-06T16:27:59.820Z,43.40
2023-03-06T16:30:32.401Z,47.15
2023-03-06T16:33:00.189Z,42.58
2023-03-06T16:35:27.586Z,48.05
2023-03-06T16:37:54.780Z,54.58
2023-03-06T16:40:29.240Z,48.90
2023-03-06T16:42:56.946Z,44.05
2023-03-06T16:45:24.747Z,36.85
2023-03-06T16:47:52.467Z,79.07
2023-03-06T16:50:36.543Z,57.17
2023-03-06T16:53:04.353Z,50.97
2023-03-06T16:55:33.882Z,86.05
2023-03-06T16:58:00.939Z,81.47
2023-03-06T17:00:33.371Z,102.82
2023-03-06T17:03:01.850Z,114.82
2023-03-06T17:05:33.338Z,122.47
2023-03-06T17:08:00.508Z,136.95
2023-03-06T17:10:27.608Z,108.68
2023-03-06T17:12:55.987Z,104.03
2023-03-06T17:15:23.192Z,109.45
2023-03-06T17:17:51.834Z,104.40
2023-03-06T17:20:19.684Z,120.88
2023-03-06T17:22:46.745Z,110.30
2023-03-06T17:25:13.890Z,138.80
2023-03-06T17:27:41.044Z,126.05
2023-03-06T17:30:08.619Z,105.55
2023-03-06T17:32:37.809Z,53.33
2023-03-06T17:35:05.407Z,118.45
2023-03-06T17:37:32.542Z,87.93
2023-03-06T17:39:59.709Z,93.03
2023-03-06T17:42:26.820Z,98.55
2023-03-06T17:44:53.921Z,95.25
2023-03-06T17:47:20.914Z,75.18
2023-03-06T17:49:47.895Z,95.93
2023-03-06T17:52:14.997Z,86.75
2023-03-06T17:54:42.096Z,82.57
2023-03-06T17:57:09.167Z,102.80
2023-03-06T17:59:36.302Z,83.47
2023-03-06T18:02:03.996Z,115.50
2023-03-06T18:04:31.256Z,117.63
2023-03-06T18:06:58.576Z,126.95
2023-03-06T18:09:25.675Z,110.75
2023-03-06T18:11:53.031Z,102.20
2023-03-06T18:14:20.146Z,108.82
2023-03-06T18:16:47.422Z,118.85
2023-03-06T18:19:14.895Z,105.50
2023-03-06T18:21:42.108Z,97.03
2023-03-06T18:24:11.569Z,93.53
2023-03-06T18:26:42.564Z,112.40
2023-03-06T18:29:09.744Z,124.00
2023-03-06T18:31:39.414Z,118.75
2023-03-06T18:34:18.010Z,104.65
2023-03-06T18:36:47.698Z,127.78
2023-03-06T18:39:16.014Z,141.63
2023-03-06T18:41:43.251Z,147.80
2023-03-06T18:44:14.795Z,133.35
2023-03-06T18:46:42.294Z,145.65
2023-03-06T18:49:10.565Z,144.18
2023-03-06T18:51:37.685Z,128.38
2023-03-06T18:54:06.629Z,142.95
2023-03-06T18:56:34.308Z,122.95
2023-03-06T18:59:06.763Z,115.85
2023-03-06T19:01:34.470Z,129.90
2023-03-06T19:04:03.519Z,132.23
2023-03-06T19:06:33.711Z,120.85
2023-03-06T19:09:02.444Z,119.28
2023-03-06T19:11:30.039Z,97.10
2023-03-06T19:13:57.224Z,90.38
2023-03-06T19:16:27.856Z,79.43
2023-03-06T19:18:56.219Z,71.65
2023-03-06T19:21:26.377Z,78.85
2023-03-06T19:23:53.996Z,79.53
2023-03-06T19:26:21.202Z,77.43
2023-03-06T19:28:48.634Z,77.43
2023-03-06T19:31:20.328Z,72.53
2023-03-06T19:33:49.382Z,83.32
2023-03-06T19:36:17.475Z,96.70
2023-03-06T19:38:44.543Z,82.18
2023-03-06T19:41:13.828Z,77.18
2023-03-06T19:43:44.038Z,87.15
2023-03-06T19:46:13.160Z,90.18
2023-03-06T19:48:41.382Z,75.82
2023-03-06T19:51:09.109Z,83.93
2023-03-06T19:53:36.929Z,87.32
2023-03-06T19:56:05.074Z,83.07
2023-03-06T19:58:32.147Z,82.70
2023-03-06T20:01:25.354Z,88.18
2023-03-06T20:03:59.860Z,90.95
2023-03-06T20:06:37.764Z,88.60
2023-03-06T20:09:08.326Z,124.55
2023-03-06T20:11:39.101Z,145.77
2023-03-06T20:14:08.123Z,140.57
2023-03-06T20:16:36.070Z,139.98
2023-03-06T20:19:03.834Z,150.65
2023-03-06T20:21:35.591Z,146.35
2023-03-06T20:24:08.098Z,143.73
2023-03-06T20:26:36.936Z,143.05
2023-03-06T20:29:04.300Z,95.53
2023-03-06T20:31:31.564Z,104.63
2023-03-06T20:33:59.901Z,121.30
2023-03-06T20:36:29.960Z,124.90
2023-03-06T20:39:00.320Z,70.72
2023-03-06T20:41:29.313Z,97.63
2023-03-06T20:43:58.534Z,100.50
2023-03-06T20:46:29.159Z,98.07
2023-03-06T20:48:58.251Z,92.97
2023-03-06T20:51:28.921Z,128.73
2023-03-06T20:53:56.618Z,138.43
2023-03-06T20:56:26.803Z,116.63
2023-03-06T20:58:54.364Z,121.22
2023-03-06T21:01:29.488Z,111.20
2023-03-06T21:03:57.974Z,98.95
2023-03-06T21:06:26.827Z,75.88
2023-03-06T21:08:54.810Z,101.25
2023-03-06T21:11:22.321Z,37.05
2023-03-06T21:13:49.721Z,39.45
2023-03-06T21:16:19.542Z,53.92
2023-03-06T21:18:47.912Z,67.93
2023-03-06T21:21:18.660Z,67.68
2023-03-06T21:23:47.372Z,65.10
2023-03-06T21:26:17.469Z,86.13
2023-03-06T21:28:44.731Z,127.10
2023-03-06T21:31:13.575Z,92.35
2023-03-06T21:33:41.067Z,86.68
2023-03-06T21:36:09.202Z,102.20
2023-03-06T21:38:36.656Z,56.78
2023-03-06T21:41:15.934Z,71.95
2023-03-06T21:46:11.737Z,104.70
2023-03-06T21:48:42.428Z,138.00
2023-03-06T21:51:13.367Z,114.28
2023-03-06T21:53:47.767Z,104.15
2023-03-06T21:56:17.965Z,116.10
2023-03-06T21:58:46.092Z,112.55
2023-03-06T22:01:22.894Z,87.63
2023-03-06T22:03:50.785Z,117.75
2023-03-06T22:06:27.997Z,113.10
2023-03-06T22:08:56.690Z,96.85
2023-03-06T22:11:25.335Z,94.68
2023-03-06T22:13:55.876Z,93.88
2023-03-06T22:16:23.431Z,86.60
2023-03-06T22:18:52.028Z,100.88
2023-03-06T22:21:21.949Z,79.47
2023-03-06T22:23:54.189Z,57.20
2023-03-06T22:26:21.849Z,48.05
2023-03-06T22:28:49.345Z,50.88
2023-03-06T22:31:24.428Z,53.83
2023-03-06T22:33:53.295Z,59.25
2023-03-06T22:36:21.623Z,45.38
2023-03-06T22:38:49.765Z,54.75
2023-03-06T22:41:17.696Z,106.35
2023-03-06T22:43:45.043Z,125.72
2023-03-06T22:46:15.138Z,66.03
2023-03-06T22:48:42.756Z,59.78
2023-03-06T22:51:12.713Z,98.70
2023-03-06T22:53:40.665Z,58.03
2023-03-06T22:56:11.021Z,47.75
2023-03-06T22:58:38.865Z,56.80
2023-03-06T23:01:12.622Z,103.20
2023-03-06T23:03:42.889Z,73.53
2023-03-06T23:06:12.827Z,78.15
2023-03-06T23:08:40.865Z,73.82
2023-03-06T23:11:13.832Z,75.70
2023-03-06T23:13:59.749Z,92.70
2023-03-06T23:16:46.210Z,83.10
2023-03-06T23:19:31.997Z,91.05
2023-03-06T23:22:18.803Z,70.55
2023-03-06T23:25:04.684Z,58.42
2023-03-06T23:27:32.410Z,70.07
2023-03-06T23:29:59.938Z,38.83
2023-03-06T23:32:27.002Z,16.38
2023-03-06T23:34:54.741Z,45.55
2023-03-06T23:37:21.698Z,48.17
2023-03-06T23:39:49.055Z,25.52
2023-03-06T23:42:16.378Z,29.30
2023-03-06T23:44:43.910Z,37.47
2023-03-06T23:47:10.891Z,33.80
2023-03-06T23:49:40.178Z,31.75
2023-03-06T23:52:07.228Z,34.17
2023-03-06T23:54:34.603Z,44.88
2023-03-06T23:57:01.675Z,48.33
2023-03-06T23:59:28.799Z,52.08
